Time;durP1;ratioP1;P1;durP2;ratioP2;P2;SDS_P1;SDS_P2;PMS_P1;PMS_P2;Temp;Humidity;BMP_temperature;BMP_pressure;BME280_temperature;BME280_humidity;BME280_pressure;Samples;Min_cycle;Max_cycle;Signal;HPM_P1;HPM_P2
2023/02/24 00:03:30;;;;;;;;;49.50;37.00;;;;;;;;5016611;28;51415;-54
2023/02/24 00:06:14;;;;;;;;;50.00;35.50;;;;;;;;5073043;28;51044;-50
2023/02/24 00:08:59;;;;;;;;;49.25;37.00;;;;;;;;5079490;28;51542;-48
2023/02/24 00:11:45;;;;;;;;;52.25;37.50;;;;;;;;5079692;28;51137;-48
2023/02/24 00:14:30;;;;;;;;;45.25;34.00;;;;;;;;5079399;28;51343;-48
2023/02/24 00:17:15;;;;;;;;;50.00;35.00;;;;;;;;5079380;28;51233;-48
2023/02/24 00:19:59;;;;;;;;;45.25;34.00;;;;;;;;5079448;28;51154;-51
2023/02/24 00:22:44;;;;;;;;;48.50;33.25;;;;;;;;5079067;28;51065;-47
2023/02/24 00:25:28;;;;;;;;;35.50;30.25;;;;;;;;5079818;28;51080;-49
2023/02/24 00:28:13;;;;;;;;;46.50;35.75;;;;;;;;5081258;27;51534;-49
2023/02/24 00:31:01;;;;;;;;;53.50;38.00;;;;;;;;5083113;27;51228;-47
2023/02/24 00:33:46;;;;;;;;;39.50;32.00;;;;;;;;5083409;27;51189;-48
2023/02/24 00:36:32;;;;;;;;;45.00;34.50;;;;;;;;5083513;27;51166;-52
2023/02/24 00:39:16;;;;;;;;;48.00;37.00;;;;;;;;5082967;27;51193;-48
2023/02/24 00:42:05;;;;;;;;;37.75;32.00;;;;;;;;5083017;27;51025;-51
2023/02/24 00:44:52;;;;;;;;;49.25;33.25;;;;;;;;5083189;27;51616;-54
2023/02/24 00:47:40;;;;;;;;;47.50;32.50;;;;;;;;5083165;27;51099;-47
2023/02/24 00:50:25;;;;;;;;;46.25;35.75;;;;;;;;5083457;27;51078;-54
2023/02/24 00:53:09;;;;;;;;;52.75;36.25;;;;;;;;5082582;27;51419;-51
2023/02/24 00:55:58;;;;;;;;;44.75;33.25;;;;;;;;5082756;27;51197;-52
2023/02/24 00:58:43;;;;;;;;;48.75;32.00;;;;;;;;5082939;27;51102;-52
2023/02/24 01:01:30;;;;;;;;;42.00;31.50;;;;;;;;5083124;27;51064;-49
2023/02/24 01:04:14;;;;;;;;;41.00;32.00;;;;;;;;5082461;27;51445;-48
2023/02/24 01:07:01;;;;;;;;;42.25;29.50;;;;;;;;5082781;27;51421;-52
2023/02/24 01:09:48;;;;;;;;;41.50;32.00;;;;;;;;5078303;27;51387;-54
2023/02/24 01:12:49;;;;;;;;;46.50;32.75;;;;;;;;5082635;27;51216;-49
2023/02/24 01:15:33;;;;;;;;;42.25;32.00;;;;;;;;5082924;27;51169;-54
2023/02/24 01:18:17;;;;;;;;;41.50;33.75;;;;;;;;5082203;27;51153;-48
2023/02/24 01:21:01;;;;;;;;;39.50;29.50;;;;;;;;5082538;27;51331;-51
2023/02/24 01:23:47;;;;;;;;;47.00;33.00;;;;;;;;5082188;27;51059;-51
2023/02/24 01:26:31;;;;;;;;;41.75;31.75;;;;;;;;5082661;27;51072;-52
2023/02/24 01:29:15;;;;;;;;;49.50;31.75;;;;;;;;5081848;27;51278;-50
2023/02/24 01:32:01;;;;;;;;;41.25;32.00;;;;;;;;5082405;27;51189;-49
2023/02/24 01:34:46;;;;;;;;;44.00;32.75;;;;;;;;5082168;27;51511;-52
2023/02/24 01:37:30;;;;;;;;;31.75;30.00;;;;;;;;5081909;27;51213;-54
2023/02/24 01:40:19;;;;;;;;;46.25;34.25;;;;;;;;5081025;27;51146;-51
2023/02/24 01:43:07;;;;;;;;;49.00;28.75;;;;;;;;5081794;27;51153;-49
2023/02/24 01:45:53;;;;;;;;;44.75;32.50;;;;;;;;5082153;27;51302;-57
2023/02/24 01:48:37;;;;;;;;;46.50;34.25;;;;;;;;5082023;27;51002;-51
2023/02/24 01:51:22;;;;;;;;;41.50;33.00;;;;;;;;5081785;27;51131;-53
2023/02/24 01:54:09;;;;;;;;;46.00;33.50;;;;;;;;5081796;27;51081;-51
2023/02/24 01:56:55;;;;;;;;;42.75;31.75;;;;;;;;5081820;27;51134;-59
2023/02/24 01:59:39;;;;;;;;;44.25;32.75;;;;;;;;5081894;27;51052;-50
2023/02/24 02:02:23;;;;;;;;;44.00;33.00;;;;;;;;5081457;27;51647;-50
2023/02/24 02:05:08;;;;;;;;;38.75;33.00;;;;;;;;5081936;27;51043;-51
2023/02/24 02:07:52;;;;;;;;;46.25;33.75;;;;;;;;5081452;27;51186;-49
2023/02/24 02:10:38;;;;;;;;;51.75;32.00;;;;;;;;5081379;27;51239;-54
2023/02/24 02:13:24;;;;;;;;;40.25;31.75;;;;;;;;5081192;27;51179;-52
2023/02/24 02:16:27;;;;;;;;;43.25;33.75;;;;;;;;5081674;27;51071;-51
2023/02/24 02:19:17;;;;;;;;;42.75;31.50;;;;;;;;5081282;27;51411;-53
2023/02/24 02:22:25;;;;;;;;;40.50;32.25;;;;;;;;5081332;27;51202;-51
2023/02/24 02:25:24;;;;;;;;;45.00;32.50;;;;;;;;5061031;28;51003;-49
2023/02/24 02:28:12;;;;;;;;;46.25;33.50;;;;;;;;5060896;28;51242;-47
2023/02/24 02:31:05;;;;;;;;;40.50;32.25;;;;;;;;5061067;28;51047;-52
2023/02/24 02:33:49;;;;;;;;;43.50;34.25;;;;;;;;5060702;28;51560;-51
2023/02/24 02:36:41;;;;;;;;;49.00;32.75;;;;;;;;5060366;28;51077;-54
2023/02/24 02:39:42;;;;;;;;;39.50;30.75;;;;;;;;5060344;28;51157;-57
2023/02/24 02:42:45;;;;;;;;;40.25;29.75;;;;;;;;5060684;28;51091;-55
2023/02/24 02:45:39;;;;;;;;;46.25;32.50;;;;;;;;5060031;28;51211;-49
2023/02/24 02:48:41;;;;;;;;;45.00;33.50;;;;;;;;5060377;28;51120;-53
2023/02/24 02:51:29;;;;;;;;;50.25;35.00;;;;;;;;5059976;28;51592;-55
2023/02/24 02:54:34;;;;;;;;;45.50;32.50;;;;;;;;5060226;28;51154;-47
2023/02/24 02:57:29;;;;;;;;;45.75;35.00;;;;;;;;5055873;28;51231;-54
2023/02/24 03:00:20;;;;;;;;;40.00;32.25;;;;;;;;5059990;28;51534;-53
2023/02/24 03:03:11;;;;;;;;;47.00;35.00;;;;;;;;5060261;28;51068;-52
2023/02/24 03:05:58;;;;;;;;;47.25;32.75;;;;;;;;5060281;28;51362;-52
2023/02/24 03:08:47;;;;;;;;;46.25;33.25;;;;;;;;5060376;28;51073;-51
2023/02/24 03:11:32;;;;;;;;;45.25;31.75;;;;;;;;5060008;28;51348;-50
2023/02/24 03:14:19;;;;;;;;;48.75;35.25;;;;;;;;5060017;28;51158;-54
2023/02/24 03:17:08;;;;;;;;;45.75;33.25;;;;;;;;5059863;28;51188;-51
2023/02/24 03:19:59;;;;;;;;;49.25;35.00;;;;;;;;5059572;28;51123;-49
2023/02/24 03:22:52;;;;;;;;;46.25;34.75;;;;;;;;5061502;27;51035;-50
2023/02/24 03:25:45;;;;;;;;;42.25;30.00;;;;;;;;5079974;27;51562;-52
2023/02/24 03:28:34;;;;;;;;;47.50;33.25;;;;;;;;5080140;27;51099;-55
2023/02/24 03:31:32;;;;;;;;;47.25;33.50;;;;;;;;5079873;27;51096;-54
2023/02/24 03:34:19;;;;;;;;;47.75;36.75;;;;;;;;5077681;27;51166;-53
2023/02/24 03:37:04;;;;;;;;;50.25;35.25;;;;;;;;5079584;27;51560;-52
2023/02/24 03:39:50;;;;;;;;;44.25;31.25;;;;;;;;5079739;27;51156;-52
2023/02/24 03:42:34;;;;;;;;;47.75;33.75;;;;;;;;5079879;27;51634;-58
2023/02/24 03:45:21;;;;;;;;;44.00;31.75;;;;;;;;5079840;27;51083;-52
2023/02/24 03:48:07;;;;;;;;;45.00;32.50;;;;;;;;5079781;27;51118;-52
2023/02/24 03:50:52;;;;;;;;;49.00;34.75;;;;;;;;5079470;27;51195;-49
2023/02/24 03:53:42;;;;;;;;;46.00;36.00;;;;;;;;5079747;27;51715;-53
2023/02/24 03:56:29;;;;;;;;;49.75;35.50;;;;;;;;5079416;28;50995;-51
2023/02/24 03:59:13;;;;;;;;;48.00;34.75;;;;;;;;5080068;28;51161;-49
2023/02/24 04:02:05;;;;;;;;;46.75;36.25;;;;;;;;5079506;27;51475;-52
2023/02/24 04:05:08;;;;;;;;;47.00;34.75;;;;;;;;5083593;27;51028;-47
2023/02/24 04:08:07;;;;;;;;;45.00;32.50;;;;;;;;5083756;27;51146;-54
2023/02/24 04:11:04;;;;;;;;;46.00;34.25;;;;;;;;5083477;27;51197;-52
2023/02/24 04:13:53;;;;;;;;;47.75;35.25;;;;;;;;5083976;27;51005;-50
2023/02/24 04:16:41;;;;;;;;;44.00;33.00;;;;;;;;5083467;27;51563;-50
2023/02/24 04:19:28;;;;;;;;;46.25;35.50;;;;;;;;5083677;27;51654;-51
2023/02/24 04:22:15;;;;;;;;;46.75;35.00;;;;;;;;5083372;27;51130;-52
2023/02/24 04:25:00;;;;;;;;;52.75;38.00;;;;;;;;5083551;27;51178;-50
2023/02/24 04:27:46;;;;;;;;;54.25;39.25;;;;;;;;5083213;27;51456;-53
2023/02/24 04:30:33;;;;;;;;;50.75;36.25;;;;;;;;5083627;27;51195;-48
2023/02/24 04:33:18;;;;;;;;;50.00;36.75;;;;;;;;5083672;27;51567;-50
2023/02/24 04:36:03;;;;;;;;;48.25;36.75;;;;;;;;5082777;27;51120;-49
2023/02/24 04:38:48;;;;;;;;;43.75;31.00;;;;;;;;5083693;27;51128;-55
2023/02/24 04:41:32;;;;;;;;;51.25;35.50;;;;;;;;5083184;27;51095;-47
2023/02/24 04:44:18;;;;;;;;;43.25;34.00;;;;;;;;5083411;27;51529;-52
2023/02/24 04:47:02;;;;;;;;;48.25;32.25;;;;;;;;5082788;27;51071;-51
2023/02/24 04:49:46;;;;;;;;;44.75;33.75;;;;;;;;5083220;27;51008;-51
2023/02/24 04:52:31;;;;;;;;;49.50;37.50;;;;;;;;5082947;27;51484;-51
2023/02/24 04:55:19;;;;;;;;;52.25;37.00;;;;;;;;5082810;27;51157;-49
2023/02/24 04:58:03;;;;;;;;;46.75;33.50;;;;;;;;5082865;27;51637;-52
2023/02/24 05:00:51;;;;;;;;;51.75;35.00;;;;;;;;5082674;27;51099;-50
2023/02/24 05:03:36;;;;;;;;;46.75;36.00;;;;;;;;5083075;27;51171;-49
2023/02/24 05:06:20;;;;;;;;;53.25;39.00;;;;;;;;5082693;27;51028;-51
2023/02/24 05:09:13;;;;;;;;;48.75;35.25;;;;;;;;5082564;27;51059;-55
2023/02/24 05:11:57;;;;;;;;;50.75;36.00;;;;;;;;5082433;27;51138;-48
2023/02/24 05:14:42;;;;;;;;;49.00;36.50;;;;;;;;5082708;27;51048;-55
2023/02/24 05:17:28;;;;;;;;;50.75;36.50;;;;;;;;5082526;27;51454;-50
2023/02/24 05:23:15;;;;;;;;;47.25;34.50;;;;;;;;5082248;27;51602;-51
2023/02/24 05:26:00;;;;;;;;;51.00;37.25;;;;;;;;5082032;27;51060;-51
2023/02/24 05:28:47;;;;;;;;;46.00;34.25;;;;;;;;5082546;27;51031;-49
2023/02/24 05:31:32;;;;;;;;;48.25;34.50;;;;;;;;5082220;27;51418;-55
2023/02/24 05:34:16;;;;;;;;;48.25;34.25;;;;;;;;5082038;27;51052;-54
2023/02/24 05:37:06;;;;;;;;;45.75;35.00;;;;;;;;5081980;27;51115;-51
2023/02/24 05:39:54;;;;;;;;;50.25;34.50;;;;;;;;5082576;27;51134;-49
2023/02/24 05:42:39;;;;;;;;;52.50;36.25;;;;;;;;5081876;27;51529;-53
2023/02/24 05:45:29;;;;;;;;;48.00;34.25;;;;;;;;5081991;27;51018;-48
2023/02/24 05:48:16;;;;;;;;;47.25;36.75;;;;;;;;5082014;27;51577;-51
2023/02/24 05:51:06;;;;;;;;;50.25;35.00;;;;;;;;5081789;27;51184;-49
2023/02/24 05:53:54;;;;;;;;;45.00;32.75;;;;;;;;5082177;27;51115;-55
2023/02/24 05:56:42;;;;;;;;;47.25;34.25;;;;;;;;5081633;27;51039;-54
2023/02/24 05:59:31;;;;;;;;;53.00;35.75;;;;;;;;5081701;27;51688;-52
2023/02/24 06:02:16;;;;;;;;;46.25;35.00;;;;;;;;5081435;27;50992;-50
2023/02/24 06:05:03;;;;;;;;;50.50;36.00;;;;;;;;5081911;27;51067;-52
2023/02/24 06:07:48;;;;;;;;;49.25;36.25;;;;;;;;5081396;27;51083;-47
2023/02/24 06:10:33;;;;;;;;;49.00;36.00;;;;;;;;5081540;27;51143;-52
2023/02/24 06:13:17;;;;;;;;;45.25;34.25;;;;;;;;5081298;27;51175;-50
2023/02/24 06:16:02;;;;;;;;;47.00;36.75;;;;;;;;5081159;27;51313;-53
2023/02/24 06:18:50;;;;;;;;;49.50;36.50;;;;;;;;5081645;27;51042;-56
2023/02/24 06:21:35;;;;;;;;;46.50;33.25;;;;;;;;5081154;27;51503;-52
2023/02/24 06:24:20;;;;;;;;;40.75;30.00;;;;;;;;5080920;27;51163;-54
2023/02/24 06:27:16;;;;;;;;;45.50;35.25;;;;;;;;5080722;27;51215;-50
2023/02/24 06:30:00;;;;;;;;;46.50;33.50;;;;;;;;5081500;27;51226;-57
2023/02/24 06:32:44;;;;;;;;;45.25;35.00;;;;;;;;5080923;27;51047;-53
2023/02/24 06:35:31;;;;;;;;;48.00;35.25;;;;;;;;5080939;27;51178;-45
2023/02/24 06:38:16;;;;;;;;;45.50;33.25;;;;;;;;5080735;27;51747;-44
2023/02/24 06:41:09;;;;;;;;;46.75;36.75;;;;;;;;5065423;27;51202;-44
2023/02/24 06:43:53;;;;;;;;;47.25;32.00;;;;;;;;5081352;27;51068;-46
2023/02/24 06:46:37;;;;;;;;;43.25;32.25;;;;;;;;5080732;27;51368;-44
2023/02/24 06:49:22;;;;;;;;;50.25;35.50;;;;;;;;5080674;27;51099;-44
2023/02/24 06:52:07;;;;;;;;;46.00;34.00;;;;;;;;5080806;27;51133;-45
2023/02/24 06:54:51;;;;;;;;;48.75;31.75;;;;;;;;5064266;27;51080;-45
2023/02/24 06:57:36;;;;;;;;;41.25;32.75;;;;;;;;5080438;27;51116;-44
2023/02/24 07:00:23;;;;;;;;;41.25;32.75;;;;;;;;5080413;27;51145;-45
2023/02/24 07:03:15;;;;;;;;;43.00;32.25;;;;;;;;5080793;27;51078;-47
2023/02/24 07:06:19;;;;;;;;;49.50;34.00;;;;;;;;5080611;27;51089;-46
2023/02/24 07:09:04;;;;;;;;;46.25;33.75;;;;;;;;5080974;27;51137;-45
2023/02/24 07:11:52;;;;;;;;;51.25;36.00;;;;;;;;5080469;27;50949;-43
2023/02/24 07:14:37;;;;;;;;;49.25;37.50;;;;;;;;5073198;27;52942;-45
2023/02/24 07:17:22;;;;;;;;;45.50;36.50;;;;;;;;5080136;27;51064;-46
2023/02/24 07:20:11;;;;;;;;;45.75;35.75;;;;;;;;5080763;27;51133;-44
2023/02/24 07:22:55;;;;;;;;;48.50;35.00;;;;;;;;5082249;27;51420;-44
2023/02/24 07:25:42;;;;;;;;;42.00;33.00;;;;;;;;5100556;27;51191;-44
2023/02/24 07:28:26;;;;;;;;;45.75;34.75;;;;;;;;5100527;27;51717;-44
2023/02/24 07:31:12;;;;;;;;;41.00;32.75;;;;;;;;5100439;27;51187;-44
2023/02/24 07:33:56;;;;;;;;;49.25;34.75;;;;;;;;5100930;27;51105;-46
2023/02/24 07:36:48;;;;;;;;;46.25;33.25;;;;;;;;5077784;27;51349;-45
2023/02/24 07:39:32;;;;;;;;;48.00;34.50;;;;;;;;5079955;27;51522;-46
2023/02/24 07:42:16;;;;;;;;;47.00;32.00;;;;;;;;5095570;27;51038;-45
2023/02/24 07:45:03;;;;;;;;;44.50;33.50;;;;;;;;5101129;27;51157;-46
2023/02/24 07:47:48;;;;;;;;;44.25;32.50;;;;;;;;5090286;27;51070;-46
2023/02/24 07:50:33;;;;;;;;;48.25;34.00;;;;;;;;5100515;27;51167;-45
2023/02/24 07:53:18;;;;;;;;;46.00;32.25;;;;;;;;5100578;27;51119;-45
2023/02/24 07:56:18;;;;;;;;;43.50;33.50;;;;;;;;5100422;27;51133;-46
2023/02/24 07:59:06;;;;;;;;;42.00;32.75;;;;;;;;5100635;27;51061;-45
2023/02/24 08:01:54;;;;;;;;;45.00;32.50;;;;;;;;5100295;27;51183;-45
2023/02/24 08:04:40;;;;;;;;;44.25;34.25;;;;;;;;5100202;27;51613;-46
2023/02/24 08:07:24;;;;;;;;;45.75;31.75;;;;;;;;5084306;27;51076;-45
2023/02/24 08:10:12;;;;;;;;;46.00;30.75;;;;;;;;5074876;27;51008;-45
2023/02/24 08:13:01;;;;;;;;;37.75;30.50;;;;;;;;5079386;27;51526;-46
2023/02/24 08:15:55;;;;;;;;;44.50;33.25;;;;;;;;5079510;27;51213;-47
2023/02/24 08:18:40;;;;;;;;;46.50;34.00;;;;;;;;5079517;27;51600;-46
2023/02/24 08:21:26;;;;;;;;;43.75;33.75;;;;;;;;5079495;27;51090;-46
2023/02/24 08:24:17;;;;;;;;;44.00;32.50;;;;;;;;5079720;27;51138;-45
2023/02/24 08:27:04;;;;;;;;;44.00;30.75;;;;;;;;5080060;28;51050;-43
2023/02/24 08:29:59;;;;;;;;;43.75;32.25;;;;;;;;5079275;28;51602;-43
2023/02/24 08:32:45;;;;;;;;;41.25;31.75;;;;;;;;5079280;28;51005;-44
2023/02/24 08:35:34;;;;;;;;;51.75;33.75;;;;;;;;5079611;28;51074;-45
2023/02/24 08:38:20;;;;;;;;;43.50;33.25;;;;;;;;5079296;28;51474;-45
2023/02/24 08:41:05;;;;;;;;;45.00;31.50;;;;;;;;5079673;28;51119;-47
2023/02/24 08:43:49;;;;;;;;;41.25;28.50;;;;;;;;5079314;28;51176;-46
2023/02/24 08:46:36;;;;;;;;;40.50;30.75;;;;;;;;5079363;28;51256;-47
2023/02/24 08:49:23;;;;;;;;;38.50;31.25;;;;;;;;5082161;27;51152;-44
2023/02/24 08:52:07;;;;;;;;;39.00;30.00;;;;;;;;5076636;27;51286;-46
2023/02/24 08:54:57;;;;;;;;;42.75;31.50;;;;;;;;5082880;27;51567;-45
2023/02/24 08:57:50;;;;;;;;;38.00;32.00;;;;;;;;5082993;27;51196;-47
2023/02/24 09:00:52;;;;;;;;;41.50;29.50;;;;;;;;5083468;27;51016;-45
2023/02/24 09:03:44;;;;;;;;;38.75;31.50;;;;;;;;5083115;27;51438;-45
2023/02/24 09:06:46;;;;;;;;;42.50;30.50;;;;;;;;5083210;27;51181;-45
2023/02/24 09:09:30;;;;;;;;;37.00;28.50;;;;;;;;5083170;27;51615;-43
2023/02/24 09:12:23;;;;;;;;;45.50;28.50;;;;;;;;5082823;27;51136;-43
2023/02/24 09:15:08;;;;;;;;;38.00;29.00;;;;;;;;5082913;27;51138;-44
2023/02/24 09:18:06;;;;;;;;;38.50;29.75;;;;;;;;5082465;27;51135;-44
2023/02/24 09:20:56;;;;;;;;;41.25;30.50;;;;;;;;5082509;27;51563;-45
2023/02/24 09:23:47;;;;;;;;;47.00;35.25;;;;;;;;5090953;27;51220;-45
2023/02/24 09:26:42;;;;;;;;;45.25;36.00;;;;;;;;5103247;27;51029;-44
2023/02/24 09:29:32;;;;;;;;;48.25;36.00;;;;;;;;5103153;27;51415;-47
2023/02/24 09:32:17;;;;;;;;;43.25;32.50;;;;;;;;5102983;27;51121;-44
2023/02/24 09:35:01;;;;;;;;;45.50;35.00;;;;;;;;5102739;27;51413;-43
2023/02/24 09:37:46;;;;;;;;;46.25;34.50;;;;;;;;5102871;27;51183;-44
2023/02/24 09:40:39;;;;;;;;;44.75;32.00;;;;;;;;5101959;27;51095;-44
2023/02/24 09:43:26;;;;;;;;;47.25;32.25;;;;;;;;5087417;27;51162;-44
2023/02/24 09:46:14;;;;;;;;;41.00;32.25;;;;;;;;5099839;27;51182;-45
2023/02/24 09:49:06;;;;;;;;;43.75;32.00;;;;;;;;5081781;27;51101;-45
2023/02/24 09:51:59;;;;;;;;;48.00;33.75;;;;;;;;5082443;27;51121;-45
2023/02/24 09:55:11;;;;;;;;;48.25;31.50;;;;;;;;5082008;27;51449;-44
2023/02/24 09:58:36;;;;;;;;;43.50;32.75;;;;;;;;5082048;27;51103;-44
2023/02/24 10:01:19;;;;;;;;;53.25;39.00;;;;;;;;5080266;27;51697;-45
2023/02/24 10:04:22;;;;;;;;;48.25;35.75;;;;;;;;5081711;27;51053;-44
2023/02/24 10:07:11;;;;;;;;;45.50;31.50;;;;;;;;5081595;27;51181;-45
2023/02/24 10:10:18;;;;;;;;;49.00;35.75;;;;;;;;5081733;27;51090;-45
2023/02/24 10:13:16;;;;;;;;;39.75;32.00;;;;;;;;5079902;27;51218;-45
2023/02/24 10:16:04;;;;;;;;;42.00;32.00;;;;;;;;5081301;27;51068;-43
2023/02/24 10:19:33;;;;;;;;;32.00;26.25;;;;;;;;5077909;27;51081;-44
2023/02/24 10:22:26;;;;;;;;;44.00;30.50;;;;;;;;5080952;27;51577;-44
2023/02/24 10:25:34;;;;;;;;;42.25;32.25;;;;;;;;5047403;27;51213;-45
2023/02/24 10:28:37;;;;;;;;;43.75;34.00;;;;;;;;5081185;27;51015;-45
2023/02/24 10:31:40;;;;;;;;;46.00;36.00;;;;;;;;5081216;27;51053;-45
2023/02/24 10:34:30;;;;;;;;;45.00;33.00;;;;;;;;5081213;27;51526;-43
2023/02/24 10:37:18;;;;;;;;;46.75;31.25;;;;;;;;5080767;27;51202;-44
2023/02/24 10:40:08;;;;;;;;;44.25;32.75;;;;;;;;5081401;27;51132;-44
2023/02/24 10:43:09;;;;;;;;;43.50;29.00;;;;;;;;5081061;27;51072;-46
2023/02/24 10:46:04;;;;;;;;;42.25;31.00;;;;;;;;5081474;27;51193;-44
2023/02/24 10:48:50;;;;;;;;;43.00;31.50;;;;;;;;5080916;27;51172;-43
2023/02/24 10:51:37;;;;;;;;;42.50;31.00;;;;;;;;5080939;27;51023;-44
2023/02/24 10:54:41;;;;;;;;;41.50;31.75;;;;;;;;5080733;27;51180;-44
2023/02/24 10:57:37;;;;;;;;;40.75;31.00;;;;;;;;5079682;27;51203;-44
2023/02/24 11:04:00;;;;;;;;;42.25;31.25;;;;;;;;5058212;28;51050;-43
2023/02/24 11:06:54;;;;;;;;;32.75;28.75;;;;;;;;5080866;27;51605;-45
2023/02/24 11:09:51;;;;;;;;;44.75;31.75;;;;;;;;5080448;27;51133;-44
2023/02/24 11:18:51;;;;;;;;;45.75;34.50;;;;;;;;5079647;27;51186;-44
2023/02/24 11:21:37;;;;;;;;;47.00;34.75;;;;;;;;5080058;27;51712;-43
2023/02/24 11:24:21;;;;;;;;;40.50;32.00;;;;;;;;5092112;27;51077;-44
2023/02/24 11:27:06;;;;;;;;;42.75;30.00;;;;;;;;5100712;27;51405;-44
2023/02/24 11:29:53;;;;;;;;;46.50;32.50;;;;;;;;5088731;27;51203;-49
2023/02/24 11:32:37;;;;;;;;;42.25;22.50;;;;;;;;5080116;27;51084;-45
2023/02/24 11:35:30;;;;;;;;;43.00;30.00;;;;;;;;5079729;27;51219;-44
2023/02/24 11:38:16;;;;;;;;;41.50;30.50;;;;;;;;5080385;27;51023;-44
2023/02/24 11:41:20;;;;;;;;;42.25;31.25;;;;;;;;5079946;27;51075;-45
2023/02/24 11:44:25;;;;;;;;;42.25;28.25;;;;;;;;5080246;27;51185;-45
2023/02/24 11:47:14;;;;;;;;;41.50;30.25;;;;;;;;5079056;27;51430;-44
2023/02/24 11:50:07;;;;;;;;;42.75;30.00;;;;;;;;5080520;27;51091;-44
2023/02/24 11:52:54;;;;;;;;;39.00;29.00;;;;;;;;5079803;27;51534;-44
2023/02/24 11:55:41;;;;;;;;;36.25;28.25;;;;;;;;5079619;27;51137;-45
2023/02/24 11:58:30;;;;;;;;;37.00;29.50;;;;;;;;5079991;27;51499;-42
2023/02/24 12:01:24;;;;;;;;;43.50;28.75;;;;;;;;5079969;27;51060;-43
2023/02/24 12:04:11;;;;;;;;;40.25;30.00;;;;;;;;5076403;27;51118;-43
2023/02/24 12:07:04;;;;;;;;;40.75;30.00;;;;;;;;5079653;28;51030;-46
2023/02/24 12:09:49;;;;;;;;;43.75;30.25;;;;;;;;5079845;27;51317;-45
2023/02/24 12:12:38;;;;;;;;;43.25;30.25;;;;;;;;5079800;28;52000;-47
2023/02/24 12:15:35;;;;;;;;;34.75;26.75;;;;;;;;5075744;27;50952;-46
2023/02/24 12:18:22;;;;;;;;;41.75;27.00;;;;;;;;5088269;27;51103;-46
2023/02/24 12:21:29;;;;;;;;;38.50;28.00;;;;;;;;5090987;27;51253;-44
2023/02/24 12:24:15;;;;;;;;;40.50;31.50;;;;;;;;5102386;27;51053;-45
2023/02/24 12:27:05;;;;;;;;;30.00;24.25;;;;;;;;5103766;27;51151;-43
2023/02/24 12:30:05;;;;;;;;;41.00;29.75;;;;;;;;5104441;27;51049;-46
2023/02/24 12:32:53;;;;;;;;;38.00;28.75;;;;;;;;5103975;27;51038;-45
2023/02/24 12:35:37;;;;;;;;;43.75;30.75;;;;;;;;5103889;27;51167;-44
2023/02/24 12:38:42;;;;;;;;;37.75;27.50;;;;;;;;5104335;27;51401;-45
2023/02/24 12:41:37;;;;;;;;;38.50;30.00;;;;;;;;5103922;27;51020;-45
2023/02/24 12:44:40;;;;;;;;;41.50;30.25;;;;;;;;5104024;27;51334;-47
2023/02/24 12:47:30;;;;;;;;;35.75;26.25;;;;;;;;5104029;27;50993;-44
2023/02/24 12:50:19;;;;;;;;;33.00;27.50;;;;;;;;5086431;27;51467;-43
2023/02/24 12:53:16;;;;;;;;;39.50;29.25;;;;;;;;5083121;27;51185;-44
2023/02/24 12:56:10;;;;;;;;;42.25;31.75;;;;;;;;5083229;27;51051;-44
2023/02/24 12:59:01;;;;;;;;;34.50;27.75;;;;;;;;5102898;27;51404;-44
2023/02/24 13:01:58;;;;;;;;;40.75;29.25;;;;;;;;5096554;27;51200;-44
2023/02/24 13:04:51;;;;;;;;;41.25;31.75;;;;;;;;5080681;27;51168;-44
2023/02/24 13:07:42;;;;;;;;;41.75;32.00;;;;;;;;5083560;27;51166;-44
2023/02/24 13:10:36;;;;;;;;;44.50;29.00;;;;;;;;5080979;27;51528;-44
2023/02/24 13:13:20;;;;;;;;;42.25;30.75;;;;;;;;5082864;27;51201;-45
2023/02/24 13:16:05;;;;;;;;;46.00;32.50;;;;;;;;5082711;27;51088;-44
2023/02/24 13:18:49;;;;;;;;;45.00;31.00;;;;;;;;5082705;27;51133;-45
2023/02/24 13:21:34;;;;;;;;;45.00;30.00;;;;;;;;5082747;27;51090;-44
2023/02/24 13:24:20;;;;;;;;;45.25;29.50;;;;;;;;5082636;27;51160;-45
2023/02/24 13:27:06;;;;;;;;;35.25;28.75;;;;;;;;5082694;27;51102;-44
2023/02/24 13:30:01;;;;;;;;;40.25;29.00;;;;;;;;5082413;27;51146;-44
2023/02/24 13:32:58;;;;;;;;;36.25;28.50;;;;;;;;5083005;27;50957;-46
2023/02/24 13:35:42;;;;;;;;;41.75;30.75;;;;;;;;5081015;27;51562;-44
2023/02/24 13:38:29;;;;;;;;;43.25;29.25;;;;;;;;5082383;27;51091;-44
2023/02/24 13:41:16;;;;;;;;;42.00;29.75;;;;;;;;5082349;27;51080;-45
2023/02/24 13:44:02;;;;;;;;;37.25;28.50;;;;;;;;5082264;27;51154;-46
2023/02/24 13:47:03;;;;;;;;;37.75;26.50;;;;;;;;5082629;27;51198;-46
2023/02/24 13:50:06;;;;;;;;;44.00;29.25;;;;;;;;5079429;27;52331;-44
2023/02/24 13:53:09;;;;;;;;;36.75;29.50;;;;;;;;5082157;27;51241;-44
2023/02/24 13:55:53;;;;;;;;;38.00;26.00;;;;;;;;5081836;27;51084;-43
2023/02/24 13:58:52;;;;;;;;;38.00;27.50;;;;;;;;5082069;27;51079;-45
2023/02/24 14:01:48;;;;;;;;;38.00;24.75;;;;;;;;5081647;27;51503;-44
2023/02/24 14:04:34;;;;;;;;;33.75;26.00;;;;;;;;5081820;27;51428;-45
2023/02/24 14:07:20;;;;;;;;;43.50;31.25;;;;;;;;5082026;27;51558;-44
2023/02/24 14:10:17;;;;;;;;;44.75;30.50;;;;;;;;5081635;27;51010;-44
2023/02/24 14:13:32;;;;;;;;;45.50;31.75;;;;;;;;5082090;27;51157;-46
2023/02/24 14:16:20;;;;;;;;;33.25;26.75;;;;;;;;5071103;27;51157;-44
2023/02/24 14:19:08;;;;;;;;;37.75;28.50;;;;;;;;5066031;27;51093;-45
2023/02/24 14:21:54;;;;;;;;;40.25;29.50;;;;;;;;5081579;27;51316;-45
2023/02/24 14:24:38;;;;;;;;;44.50;29.00;;;;;;;;5081365;27;51657;-44
2023/02/24 14:27:26;;;;;;;;;38.00;26.25;;;;;;;;5081257;27;51428;-44
2023/02/24 14:30:22;;;;;;;;;40.75;31.00;;;;;;;;5081355;27;51287;-44
2023/02/24 14:33:17;;;;;;;;;42.00;31.50;;;;;;;;5081564;27;51126;-45
2023/02/24 14:36:03;;;;;;;;;38.75;30.50;;;;;;;;5081197;27;51086;-44
2023/02/24 14:38:58;;;;;;;;;41.75;32.00;;;;;;;;5081446;27;51256;-45
2023/02/24 14:41:42;;;;;;;;;46.25;31.00;;;;;;;;5080871;27;51563;-44
2023/02/24 14:44:28;;;;;;;;;44.00;31.75;;;;;;;;5081338;27;51175;-44
2023/02/24 14:47:13;;;;;;;;;33.00;26.75;;;;;;;;5080533;27;51161;-44
2023/02/24 14:49:58;;;;;;;;;42.00;31.75;;;;;;;;5081253;27;51114;-46
2023/02/24 14:52:42;;;;;;;;;31.25;24.25;;;;;;;;5080678;27;51160;-44
2023/02/24 14:55:38;;;;;;;;;40.25;30.25;;;;;;;;5081003;27;51141;-44
2023/02/24 14:58:26;;;;;;;;;37.00;25.75;;;;;;;;5080973;27;51528;-43
2023/02/24 15:01:22;;;;;;;;;40.00;29.50;;;;;;;;5080673;27;51131;-43
2023/02/24 15:04:26;;;;;;;;;40.00;27.50;;;;;;;;5081201;27;51151;-44
2023/02/24 15:07:31;;;;;;;;;37.25;27.75;;;;;;;;5076425;27;51210;-44
2023/02/24 15:10:26;;;;;;;;;37.50;27.25;;;;;;;;5080709;27;51154;-44
2023/02/24 15:13:22;;;;;;;;;38.50;29.25;;;;;;;;5080497;27;51527;-44
2023/02/24 15:16:30;;;;;;;;;34.50;29.50;;;;;;;;5080902;27;51173;-43
2023/02/24 15:19:37;;;;;;;;;34.50;25.50;;;;;;;;5080359;27;51078;-43
2023/02/24 15:22:24;;;;;;;;;40.50;29.00;;;;;;;;5080387;27;51115;-45
2023/02/24 15:25:14;;;;;;;;;31.50;26.75;;;;;;;;5080357;27;51526;-45
2023/02/24 15:27:59;;;;;;;;;34.75;28.75;;;;;;;;5080120;27;51055;-45
2023/02/24 15:31:12;;;;;;;;;42.50;31.50;;;;;;;;5080468;27;51161;-44
2023/02/24 15:33:59;;;;;;;;;37.25;27.75;;;;;;;;5080087;27;51101;-45
2023/02/24 15:36:43;;;;;;;;;43.00;29.00;;;;;;;;5080358;27;51065;-44
2023/02/24 15:39:30;;;;;;;;;35.25;26.75;;;;;;;;5080198;27;51121;-43
2023/02/24 15:42:31;;;;;;;;;38.50;30.00;;;;;;;;5080474;27;51047;-46
2023/02/24 15:45:24;;;;;;;;;36.25;28.25;;;;;;;;5080012;27;51549;-46
2023/02/24 15:48:19;;;;;;;;;34.25;26.00;;;;;;;;5079900;27;51083;-44
2023/02/24 15:51:04;;;;;;;;;38.25;27.00;;;;;;;;5079753;27;51611;-44
2023/02/24 15:53:48;;;;;;;;;34.25;28.25;;;;;;;;5080455;27;51063;-47
2023/02/24 15:56:34;;;;;;;;;38.75;28.75;;;;;;;;5080353;27;51201;-45
2023/02/24 15:59:20;;;;;;;;;35.50;27.75;;;;;;;;5079244;28;51448;-46
2023/02/24 16:02:11;;;;;;;;;34.00;29.00;;;;;;;;5080062;28;51675;-46
2023/02/24 16:04:55;;;;;;;;;35.25;25.75;;;;;;;;5079403;28;51162;-44
2023/02/24 16:07:42;;;;;;;;;37.75;24.50;;;;;;;;5080153;28;51141;-44
2023/02/24 16:10:28;;;;;;;;;35.75;29.50;;;;;;;;5079863;28;51108;-46
2023/02/24 16:13:20;;;;;;;;;40.50;31.50;;;;;;;;5079754;28;51108;-44
2023/02/24 16:16:06;;;;;;;;;34.00;25.50;;;;;;;;5079676;28;51109;-45
2023/02/24 16:18:50;;;;;;;;;39.75;31.00;;;;;;;;5079554;28;51189;-45
2023/02/24 16:21:34;;;;;;;;;46.25;31.00;;;;;;;;5079915;28;51174;-45
2023/02/24 16:24:19;;;;;;;;;36.75;30.00;;;;;;;;5079239;28;51040;-45
2023/02/24 16:27:05;;;;;;;;;42.00;28.25;;;;;;;;5079841;28;51083;-44
2023/02/24 16:29:49;;;;;;;;;43.00;29.75;;;;;;;;5079756;28;51161;-45
2023/02/24 16:32:33;;;;;;;;;27.75;22.75;;;;;;;;5079875;28;51174;-44
2023/02/24 16:35:18;;;;;;;;;39.00;30.50;;;;;;;;5079012;28;51429;-46
2023/02/24 16:38:02;;;;;;;;;33.50;30.00;;;;;;;;5079562;28;50991;-45
2023/02/24 16:40:48;;;;;;;;;43.50;28.75;;;;;;;;5079521;28;51599;-44